sensor_id;sensor_type;location;lat;lon;timestamp;temperature;humidity
39951;DHT22;25629;51.444;-2.606;2023-06-14T00:01:39;21.30;99.90
39951;DHT22;25629;51.444;-2.606;2023-06-14T00:04:04;21.40;99.90
39951;DHT22;25629;51.444;-2.606;2023-06-14T00:06:31;21.30;99.90
39951;DHT22;25629;51.444;-2.606;2023-06-14T00:08:59;21.30;99.90
39951;DHT22;25629;51.444;-2.606;2023-06-14T00:11:24;21.20;99.90
39951;DHT22;25629;51.444;-2.606;2023-06-14T00:13:52;21.10;99.90
39951;DHT22;25629;51.444;-2.606;2023-06-14T00:16:18;21.00;99.90
39951;DHT22;25629;51.444;-2.606;2023-06-14T00:18:45;20.90;99.90
39951;DHT22;25629;51.444;-2.606;2023-06-14T00:21:11;20.90;99.90
39951;DHT22;25629;51.444;-2.606;2023-06-14T00:23:37;20.90;99.90
39951;DHT22;25629;51.444;-2.606;2023-06-14T00:26:03;20.80;99.90
39951;DHT22;25629;51.444;-2.606;2023-06-14T00:28:29;20.70;99.90
39951;DHT22;25629;51.444;-2.606;2023-06-14T00:30:54;20.70;99.90
39951;DHT22;25629;51.444;-2.606;2023-06-14T00:33:20;20.70;99.90
39951;DHT22;25629;51.444;-2.606;2023-06-14T00:35:46;20.70;99.90
39951;DHT22;25629;51.444;-2.606;2023-06-14T00:38:12;20.70;99.90
39951;DHT22;25629;51.444;-2.606;2023-06-14T00:40:38;20.60;99.90
39951;DHT22;25629;51.444;-2.606;2023-06-14T00:43:04;20.60;99.90
39951;DHT22;25629;51.444;-2.606;2023-06-14T00:45:30;20.60;99.90
39951;DHT22;25629;51.444;-2.606;2023-06-14T00:47:56;20.60;99.90
39951;DHT22;25629;51.444;-2.606;2023-06-14T00:50:23;20.60;99.90
39951;DHT22;25629;51.444;-2.606;2023-06-14T00:52:49;20.50;99.90
39951;DHT22;25629;51.444;-2.606;2023-06-14T00:55:14;20.50;99.90
39951;DHT22;25629;51.444;-2.606;2023-06-14T00:57:40;20.50;99.90
39951;DHT22;25629;51.444;-2.606;2023-06-14T01:00:07;20.40;99.90
39951;DHT22;25629;51.444;-2.606;2023-06-14T01:02:35;20.40;99.90
39951;DHT22;25629;51.444;-2.606;2023-06-14T01:05:02;20.40;99.90
39951;DHT22;25629;51.444;-2.606;2023-06-14T01:15:30;20.00;99.90
39951;DHT22;25629;51.444;-2.606;2023-06-14T01:17:56;19.90;99.90
39951;DHT22;25629;51.444;-2.606;2023-06-14T01:20:28;19.90;99.90
39951;DHT22;25629;51.444;-2.606;2023-06-14T01:22:54;19.90;99.90
39951;DHT22;25629;51.444;-2.606;2023-06-14T01:25:21;19.90;99.90
39951;DHT22;25629;51.444;-2.606;2023-06-14T01:27:58;19.80;99.90
39951;DHT22;25629;51.444;-2.606;2023-06-14T01:30:25;19.80;99.90
39951;DHT22;25629;51.444;-2.606;2023-06-14T01:32:53;19.80;99.90
39951;DHT22;25629;51.444;-2.606;2023-06-14T01:35:20;19.70;99.90
39951;DHT22;25629;51.444;-2.606;2023-06-14T01:37:46;19.70;99.90
39951;DHT22;25629;51.444;-2.606;2023-06-14T01:40:13;19.70;99.90
39951;DHT22;25629;51.444;-2.606;2023-06-14T01:42:40;19.60;99.90
39951;DHT22;25629;51.444;-2.606;2023-06-14T01:45:06;19.60;99.90
39951;DHT22;25629;51.444;-2.606;2023-06-14T01:47:32;19.50;99.90
39951;DHT22;25629;51.444;-2.606;2023-06-14T01:49:58;19.40;99.90
39951;DHT22;25629;51.444;-2.606;2023-06-14T01:52:24;19.30;99.90
39951;DHT22;25629;51.444;-2.606;2023-06-14T01:54:50;19.30;99.90
39951;DHT22;25629;51.444;-2.606;2023-06-14T01:57:16;19.20;99.90
39951;DHT22;25629;51.444;-2.606;2023-06-14T01:59:42;19.10;99.90
39951;DHT22;25629;51.444;-2.606;2023-06-14T02:02:07;19.00;99.90
39951;DHT22;25629;51.444;-2.606;2023-06-14T02:04:33;19.00;99.90
39951;DHT22;25629;51.444;-2.606;2023-06-14T02:06:59;19.00;99.90
39951;DHT22;25629;51.444;-2.606;2023-06-14T02:09:25;18.90;99.90
39951;DHT22;25629;51.444;-2.606;2023-06-14T02:11:51;18.80;99.90
39951;DHT22;25629;51.444;-2.606;2023-06-14T02:14:17;18.80;99.90
39951;DHT22;25629;51.444;-2.606;2023-06-14T02:16:43;18.80;99.90
39951;DHT22;25629;51.444;-2.606;2023-06-14T02:19:17;18.80;99.90
39951;DHT22;25629;51.444;-2.606;2023-06-14T02:21:43;18.80;99.90
39951;DHT22;25629;51.444;-2.606;2023-06-14T02:24:08;18.70;99.90
39951;DHT22;25629;51.444;-2.606;2023-06-14T02:26:35;18.70;99.90
39951;DHT22;25629;51.444;-2.606;2023-06-14T02:29:03;18.70;99.90
39951;DHT22;25629;51.444;-2.606;2023-06-14T02:31:29;18.60;99.90
39951;DHT22;25629;51.444;-2.606;2023-06-14T02:33:55;18.60;99.90
39951;DHT22;25629;51.444;-2.606;2023-06-14T02:36:20;18.60;99.90
39951;DHT22;25629;51.444;-2.606;2023-06-14T02:38:46;18.60;99.90
39951;DHT22;25629;51.444;-2.606;2023-06-14T02:41:12;18.50;99.90
39951;DHT22;25629;51.444;-2.606;2023-06-14T02:43:38;18.50;99.90
39951;DHT22;25629;51.444;-2.606;2023-06-14T02:46:03;18.40;99.90
39951;DHT22;25629;51.444;-2.606;2023-06-14T02:48:30;18.30;99.90
39951;DHT22;25629;51.444;-2.606;2023-06-14T02:50:56;18.30;99.90
39951;DHT22;25629;51.444;-2.606;2023-06-14T02:53:22;18.20;99.90
39951;DHT22;25629;51.444;-2.606;2023-06-14T02:55:47;18.20;99.90
39951;DHT22;25629;51.444;-2.606;2023-06-14T02:58:14;18.20;99.90
39951;DHT22;25629;51.444;-2.606;2023-06-14T03:00:39;18.10;99.90
39951;DHT22;25629;51.444;-2.606;2023-06-14T03:03:06;18.10;99.90
39951;DHT22;25629;51.444;-2.606;2023-06-14T03:05:40;18.00;99.90
39951;DHT22;25629;51.444;-2.606;2023-06-14T03:08:10;18.00;99.90
39951;DHT22;25629;51.444;-2.606;2023-06-14T03:10:36;18.00;99.90
39951;DHT22;25629;51.444;-2.606;2023-06-14T03:13:01;18.00;99.90
39951;DHT22;25629;51.444;-2.606;2023-06-14T03:15:27;18.00;99.90
39951;DHT22;25629;51.444;-2.606;2023-06-14T03:17:54;17.90;99.90
39951;DHT22;25629;51.444;-2.606;2023-06-14T03:20:19;17.90;99.90
39951;DHT22;25629;51.444;-2.606;2023-06-14T03:22:45;17.90;99.90
39951;DHT22;25629;51.444;-2.606;2023-06-14T03:25:11;17.90;99.90
39951;DHT22;25629;51.444;-2.606;2023-06-14T03:27:37;17.90;99.90
39951;DHT22;25629;51.444;-2.606;2023-06-14T03:30:03;17.80;99.90
39951;DHT22;25629;51.444;-2.606;2023-06-14T03:32:29;17.70;99.90
39951;DHT22;25629;51.444;-2.606;2023-06-14T03:34:58;17.70;99.90
39951;DHT22;25629;51.444;-2.606;2023-06-14T03:37:23;17.60;99.90
39951;DHT22;25629;51.444;-2.606;2023-06-14T03:39:49;17.60;99.90
39951;DHT22;25629;51.444;-2.606;2023-06-14T03:42:15;17.60;99.90
39951;DHT22;25629;51.444;-2.606;2023-06-14T03:44:41;17.50;99.90
39951;DHT22;25629;51.444;-2.606;2023-06-14T03:47:06;17.50;99.90
39951;DHT22;25629;51.444;-2.606;2023-06-14T03:49:32;17.40;99.90
39951;DHT22;25629;51.444;-2.606;2023-06-14T03:51:58;17.40;99.90
39951;DHT22;25629;51.444;-2.606;2023-06-14T03:54:24;17.30;99.90
39951;DHT22;25629;51.444;-2.606;2023-06-14T03:56:50;17.30;99.90
39951;DHT22;25629;51.444;-2.606;2023-06-14T03:59:16;17.20;99.90
39951;DHT22;25629;51.444;-2.606;2023-06-14T04:01:42;17.10;99.90
39951;DHT22;25629;51.444;-2.606;2023-06-14T04:04:10;17.00;99.90
39951;DHT22;25629;51.444;-2.606;2023-06-14T04:06:35;16.90;99.90
39951;DHT22;25629;51.444;-2.606;2023-06-14T04:09:02;16.80;99.90
39951;DHT22;25629;51.444;-2.606;2023-06-14T04:11:28;16.70;99.90
39951;DHT22;25629;51.444;-2.606;2023-06-14T04:13:54;16.70;99.90
39951;DHT22;25629;51.444;-2.606;2023-06-14T04:16:21;16.60;99.90
39951;DHT22;25629;51.444;-2.606;2023-06-14T04:18:47;16.50;99.90
39951;DHT22;25629;51.444;-2.606;2023-06-14T04:21:13;16.50;99.90
39951;DHT22;25629;51.444;-2.606;2023-06-14T04:23:39;16.50;99.90
39951;DHT22;25629;51.444;-2.606;2023-06-14T04:26:09;16.50;99.90
39951;DHT22;25629;51.444;-2.606;2023-06-14T04:28:35;16.40;99.90
39951;DHT22;25629;51.444;-2.606;2023-06-14T04:31:06;16.30;99.90
39951;DHT22;25629;51.444;-2.606;2023-06-14T04:33:36;16.20;99.90
39951;DHT22;25629;51.444;-2.606;2023-06-14T04:36:10;16.20;99.90
39951;DHT22;25629;51.444;-2.606;2023-06-14T04:38:37;16.00;99.90
39951;DHT22;25629;51.444;-2.606;2023-06-14T04:41:03;15.90;99.90
39951;DHT22;25629;51.444;-2.606;2023-06-14T04:43:29;15.80;99.90
39951;DHT22;25629;51.444;-2.606;2023-06-14T04:45:54;15.80;99.90
39951;DHT22;25629;51.444;-2.606;2023-06-14T04:48:21;15.80;99.90
39951;DHT22;25629;51.444;-2.606;2023-06-14T04:50:48;15.90;99.90
39951;DHT22;25629;51.444;-2.606;2023-06-14T04:53:13;15.90;99.90
39951;DHT22;25629;51.444;-2.606;2023-06-14T04:55:39;15.90;99.90
39951;DHT22;25629;51.444;-2.606;2023-06-14T04:58:05;15.70;99.90
39951;DHT22;25629;51.444;-2.606;2023-06-14T05:00:31;15.70;99.90
39951;DHT22;25629;51.444;-2.606;2023-06-14T05:02:57;15.60;99.90
39951;DHT22;25629;51.444;-2.606;2023-06-14T05:05:22;15.60;99.90
39951;DHT22;25629;51.444;-2.606;2023-06-14T05:07:49;15.50;99.90
39951;DHT22;25629;51.444;-2.606;2023-06-14T05:10:15;15.50;99.90
39951;DHT22;25629;51.444;-2.606;2023-06-14T05:12:40;15.50;99.90
39951;DHT22;25629;51.444;-2.606;2023-06-14T05:15:08;15.50;99.90
39951;DHT22;25629;51.444;-2.606;2023-06-14T05:17:35;15.60;99.90
39951;DHT22;25629;51.444;-2.606;2023-06-14T05:20:01;15.50;99.90
39951;DHT22;25629;51.444;-2.606;2023-06-14T05:22:27;15.50;99.90
39951;DHT22;25629;51.444;-2.606;2023-06-14T05:24:53;15.50;99.90
39951;DHT22;25629;51.444;-2.606;2023-06-14T05:27:19;15.50;99.90
39951;DHT22;25629;51.444;-2.606;2023-06-14T05:29:44;15.60;99.90
39951;DHT22;25629;51.444;-2.606;2023-06-14T05:32:10;15.60;99.90
39951;DHT22;25629;51.444;-2.606;2023-06-14T05:34:36;15.60;99.90
39951;DHT22;25629;51.444;-2.606;2023-06-14T05:37:01;15.60;99.90
39951;DHT22;25629;51.444;-2.606;2023-06-14T05:39:29;15.60;99.90
39951;DHT22;25629;51.444;-2.606;2023-06-14T05:41:54;15.70;99.90
39951;DHT22;25629;51.444;-2.606;2023-06-14T05:44:20;15.70;99.90
39951;DHT22;25629;51.444;-2.606;2023-06-14T05:46:46;15.80;99.90
39951;DHT22;25629;51.444;-2.606;2023-06-14T05:49:11;15.80;99.90
39951;DHT22;25629;51.444;-2.606;2023-06-14T05:51:37;15.80;99.90
39951;DHT22;25629;51.444;-2.606;2023-06-14T05:54:03;15.80;99.90
39951;DHT22;25629;51.444;-2.606;2023-06-14T05:56:28;15.90;99.90
39951;DHT22;25629;51.444;-2.606;2023-06-14T05:58:54;15.80;99.90
39951;DHT22;25629;51.444;-2.606;2023-06-14T06:01:20;15.80;99.90
39951;DHT22;25629;51.444;-2.606;2023-06-14T06:03:45;15.80;99.90
39951;DHT22;25629;51.444;-2.606;2023-06-14T06:06:11;16.00;99.90
39951;DHT22;25629;51.444;-2.606;2023-06-14T06:08:37;16.10;99.90
39951;DHT22;25629;51.444;-2.606;2023-06-14T06:11:03;16.20;99.90
39951;DHT22;25629;51.444;-2.606;2023-06-14T06:13:29;16.20;99.90
39951;DHT22;25629;51.444;-2.606;2023-06-14T06:15:54;16.20;99.90
39951;DHT22;25629;51.444;-2.606;2023-06-14T06:18:21;16.30;99.90
39951;DHT22;25629;51.444;-2.606;2023-06-14T06:20:47;16.40;99.90
39951;DHT22;25629;51.444;-2.606;2023-06-14T06:23:12;16.40;99.90
39951;DHT22;25629;51.444;-2.606;2023-06-14T06:25:38;16.40;99.90
39951;DHT22;25629;51.444;-2.606;2023-06-14T06:28:04;16.50;99.90
39951;DHT22;25629;51.444;-2.606;2023-06-14T06:30:29;16.60;99.90
39951;DHT22;25629;51.444;-2.606;2023-06-14T06:32:55;16.50;99.90
39951;DHT22;25629;51.444;-2.606;2023-06-14T06:35:23;16.60;99.90
39951;DHT22;25629;51.444;-2.606;2023-06-14T06:37:49;16.60;99.90
39951;DHT22;25629;51.444;-2.606;2023-06-14T06:40:15;16.70;99.90
39951;DHT22;25629;51.444;-2.606;2023-06-14T06:42:41;16.70;99.90
39951;DHT22;25629;51.444;-2.606;2023-06-14T06:45:06;16.80;99.90
39951;DHT22;25629;51.444;-2.606;2023-06-14T06:47:32;16.80;99.90
39951;DHT22;25629;51.444;-2.606;2023-06-14T06:49:58;16.90;99.90
39951;DHT22;25629;51.444;-2.606;2023-06-14T06:52:23;16.90;99.90
39951;DHT22;25629;51.444;-2.606;2023-06-14T06:54:49;16.90;99.90
39951;DHT22;25629;51.444;-2.606;2023-06-14T06:57:15;16.90;99.90
39951;DHT22;25629;51.444;-2.606;2023-06-14T06:59:41;16.90;99.90
39951;DHT22;25629;51.444;-2.606;2023-06-14T07:02:07;16.90;99.90
39951;DHT22;25629;51.444;-2.606;2023-06-14T07:04:32;16.90;99.90
39951;DHT22;25629;51.444;-2.606;2023-06-14T07:06:58;17.00;99.90
39951;DHT22;25629;51.444;-2.606;2023-06-14T07:09:23;17.10;99.90
39951;DHT22;25629;51.444;-2.606;2023-06-14T07:11:49;17.20;99.90
39951;DHT22;25629;51.444;-2.606;2023-06-14T07:14:15;17.30;99.90
39951;DHT22;25629;51.444;-2.606;2023-06-14T07:16:41;17.30;99.90
39951;DHT22;25629;51.444;-2.606;2023-06-14T07:19:08;17.40;99.90
39951;DHT22;25629;51.444;-2.606;2023-06-14T07:21:34;17.60;99.90
39951;DHT22;25629;51.444;-2.606;2023-06-14T07:24:00;17.80;99.90
39951;DHT22;25629;51.444;-2.606;2023-06-14T07:26:26;17.90;99.90
39951;DHT22;25629;51.444;-2.606;2023-06-14T07:28:53;18.00;99.90
39951;DHT22;25629;51.444;-2.606;2023-06-14T07:31:18;18.10;99.90
39951;DHT22;25629;51.444;-2.606;2023-06-14T07:33:44;18.20;99.90
39951;DHT22;25629;51.444;-2.606;2023-06-14T07:36:10;18.20;99.90
39951;DHT22;25629;51.444;-2.606;2023-06-14T07:38:35;18.30;99.90
39951;DHT22;25629;51.444;-2.606;2023-06-14T07:41:02;18.50;99.90
39951;DHT22;25629;51.444;-2.606;2023-06-14T07:43:27;18.60;99.90
39951;DHT22;25629;51.444;-2.606;2023-06-14T07:45:53;18.60;99.90
39951;DHT22;25629;51.444;-2.606;2023-06-14T07:48:19;18.80;99.90
39951;DHT22;25629;51.444;-2.606;2023-06-14T07:50:44;19.00;99.90
39951;DHT22;25629;51.444;-2.606;2023-06-14T07:53:10;19.30;99.90
39951;DHT22;25629;51.444;-2.606;2023-06-14T07:55:35;19.50;99.90
39951;DHT22;25629;51.444;-2.606;2023-06-14T07:58:05;19.80;99.90
39951;DHT22;25629;51.444;-2.606;2023-06-14T08:00:31;19.90;99.90
39951;DHT22;25629;51.444;-2.606;2023-06-14T08:02:57;19.90;99.90
39951;DHT22;25629;51.444;-2.606;2023-06-14T08:05:27;20.00;99.90
39951;DHT22;25629;51.444;-2.606;2023-06-14T08:07:53;20.00;99.90
39951;DHT22;25629;51.444;-2.606;2023-06-14T08:10:19;20.10;99.90
39951;DHT22;25629;51.444;-2.606;2023-06-14T08:12:45;20.20;99.90
39951;DHT22;25629;51.444;-2.606;2023-06-14T08:15:10;20.30;99.90
39951;DHT22;25629;51.444;-2.606;2023-06-14T08:17:36;20.60;99.90
39951;DHT22;25629;51.444;-2.606;2023-06-14T08:20:02;20.50;99.90
39951;DHT22;25629;51.444;-2.606;2023-06-14T08:22:30;20.70;99.90
39951;DHT22;25629;51.444;-2.606;2023-06-14T08:24:58;20.80;99.90
39951;DHT22;25629;51.444;-2.606;2023-06-14T08:27:23;21.00;99.90
39951;DHT22;25629;51.444;-2.606;2023-06-14T08:29:49;21.10;99.90
39951;DHT22;25629;51.444;-2.606;2023-06-14T08:32:15;21.00;99.90
39951;DHT22;25629;51.444;-2.606;2023-06-14T08:34:40;21.00;99.90
39951;DHT22;25629;51.444;-2.606;2023-06-14T08:37:06;20.90;99.90
39951;DHT22;25629;51.444;-2.606;2023-06-14T08:39:33;21.10;99.90
39951;DHT22;25629;51.444;-2.606;2023-06-14T08:41:58;21.30;99.90
39951;DHT22;25629;51.444;-2.606;2023-06-14T08:44:25;21.50;99.90
39951;DHT22;25629;51.444;-2.606;2023-06-14T08:46:51;21.60;99.90
39951;DHT22;25629;51.444;-2.606;2023-06-14T08:49:18;21.70;99.90
39951;DHT22;25629;51.444;-2.606;2023-06-14T08:51:45;21.80;99.90
39951;DHT22;25629;51.444;-2.606;2023-06-14T08:54:12;21.90;99.90
39951;DHT22;25629;51.444;-2.606;2023-06-14T08:56:39;22.00;99.90
39951;DHT22;25629;51.444;-2.606;2023-06-14T08:59:06;22.20;99.90
39951;DHT22;25629;51.444;-2.606;2023-06-14T09:01:34;22.50;99.90
39951;DHT22;25629;51.444;-2.606;2023-06-14T09:04:00;22.70;99.90
39951;DHT22;25629;51.444;-2.606;2023-06-14T09:06:25;22.80;99.90
39951;DHT22;25629;51.444;-2.606;2023-06-14T09:08:54;23.00;99.90
39951;DHT22;25629;51.444;-2.606;2023-06-14T09:11:19;23.20;99.90
39951;DHT22;25629;51.444;-2.606;2023-06-14T09:13:45;23.20;99.90
39951;DHT22;25629;51.444;-2.606;2023-06-14T09:16:12;23.40;99.90
39951;DHT22;25629;51.444;-2.606;2023-06-14T09:18:38;23.60;99.90
39951;DHT22;25629;51.444;-2.606;2023-06-14T09:21:07;23.80;99.90
39951;DHT22;25629;51.444;-2.606;2023-06-14T09:23:40;24.10;99.90
39951;DHT22;25629;51.444;-2.606;2023-06-14T09:26:06;24.00;99.90
39951;DHT22;25629;51.444;-2.606;2023-06-14T09:28:32;24.10;99.90
39951;DHT22;25629;51.444;-2.606;2023-06-14T09:30:58;24.00;99.90
39951;DHT22;25629;51.444;-2.606;2023-06-14T09:33:23;24.30;99.90
39951;DHT22;25629;51.444;-2.606;2023-06-14T09:35:50;24.20;99.90
39951;DHT22;25629;51.444;-2.606;2023-06-14T09:38:16;24.20;99.90
39951;DHT22;25629;51.444;-2.606;2023-06-14T09:40:42;24.40;99.90
39951;DHT22;25629;51.444;-2.606;2023-06-14T09:43:07;24.70;99.90
39951;DHT22;25629;51.444;-2.606;2023-06-14T09:45:36;24.70;99.90
39951;DHT22;25629;51.444;-2.606;2023-06-14T09:48:04;24.90;99.90
39951;DHT22;25629;51.444;-2.606;2023-06-14T09:50:30;25.20;99.90
39951;DHT22;25629;51.444;-2.606;2023-06-14T09:52:56;25.30;99.90
39951;DHT22;25629;51.444;-2.606;2023-06-14T09:55:24;24.90;99.90
39951;DHT22;25629;51.444;-2.606;2023-06-14T09:57:52;24.90;99.90
39951;DHT22;25629;51.444;-2.606;2023-06-14T10:00:19;25.10;99.90
39951;DHT22;25629;51.444;-2.606;2023-06-14T10:02:46;25.20;99.90
39951;DHT22;25629;51.444;-2.606;2023-06-14T10:05:16;25.10;99.90
39951;DHT22;25629;51.444;-2.606;2023-06-14T10:10:27;25.80;99.90
39951;DHT22;25629;51.444;-2.606;2023-06-14T10:12:53;25.90;99.90
39951;DHT22;25629;51.444;-2.606;2023-06-14T10:15:30;26.00;99.90
39951;DHT22;25629;51.444;-2.606;2023-06-14T10:17:59;26.30;99.90
39951;DHT22;25629;51.444;-2.606;2023-06-14T10:20:45;26.50;99.90
39951;DHT22;25629;51.444;-2.606;2023-06-14T10:23:19;26.40;99.90
39951;DHT22;25629;51.444;-2.606;2023-06-14T10:25:49;26.40;99.90
39951;DHT22;25629;51.444;-2.606;2023-06-14T10:28:16;26.70;99.90
39951;DHT22;25629;51.444;-2.606;2023-06-14T10:31:04;26.60;99.90
39951;DHT22;25629;51.444;-2.606;2023-06-14T10:33:30;26.40;99.90
39951;DHT22;25629;51.444;-2.606;2023-06-14T10:38:34;26.60;99.90
39951;DHT22;25629;51.444;-2.606;2023-06-14T10:41:01;26.80;99.90
39951;DHT22;25629;51.444;-2.606;2023-06-14T10:43:27;26.60;99.90
39951;DHT22;25629;51.444;-2.606;2023-06-14T10:48:44;26.90;99.90
39951;DHT22;25629;51.444;-2.606;2023-06-14T10:51:19;26.90;99.90
39951;DHT22;25629;51.444;-2.606;2023-06-14T10:53:46;26.90;99.90
39951;DHT22;25629;51.444;-2.606;2023-06-14T10:56:28;27.00;99.90
39951;DHT22;25629;51.444;-2.606;2023-06-14T10:58:54;27.30;99.90
39951;DHT22;25629;51.444;-2.606;2023-06-14T11:03:56;27.60;99.90
39951;DHT22;25629;51.444;-2.606;2023-06-14T11:06:22;27.80;99.90
39951;DHT22;25629;51.444;-2.606;2023-06-14T11:11:34;28.00;99.90
39951;DHT22;25629;51.444;-2.606;2023-06-14T11:14:00;28.40;99.90
39951;DHT22;25629;51.444;-2.606;2023-06-14T11:16:27;28.40;99.90
39951;DHT22;25629;51.444;-2.606;2023-06-14T11:18:53;28.40;99.90
39951;DHT22;25629;51.444;-2.606;2023-06-14T11:21:19;28.60;99.90
39951;DHT22;25629;51.444;-2.606;2023-06-14T11:23:51;28.20;99.90
39951;DHT22;25629;51.444;-2.606;2023-06-14T11:26:24;28.30;99.90
39951;DHT22;25629;51.444;-2.606;2023-06-14T11:28:54;28.50;99.90
39951;DHT22;25629;51.444;-2.606;2023-06-14T11:31:20;28.70;99.90
39951;DHT22;25629;51.444;-2.606;2023-06-14T11:33:49;29.00;99.90
39951;DHT22;25629;51.444;-2.606;2023-06-14T11:36:15;28.90;99.90
39951;DHT22;25629;51.444;-2.606;2023-06-14T11:38:40;29.00;99.90
39951;DHT22;25629;51.444;-2.606;2023-06-14T11:41:06;28.80;99.90
39951;DHT22;25629;51.444;-2.606;2023-06-14T11:43:31;29.10;99.90
39951;DHT22;25629;51.444;-2.606;2023-06-14T11:45:59;29.20;99.90
39951;DHT22;25629;51.444;-2.606;2023-06-14T11:48:45;29.40;99.90
39951;DHT22;25629;51.444;-2.606;2023-06-14T11:51:11;29.50;99.90
39951;DHT22;25629;51.444;-2.606;2023-06-14T11:53:37;29.70;99.90
39951;DHT22;25629;51.444;-2.606;2023-06-14T11:56:03;29.70;99.90
39951;DHT22;25629;51.444;-2.606;2023-06-14T11:58:29;29.80;99.90
39951;DHT22;25629;51.444;-2.606;2023-06-14T12:00:55;29.90;99.90
39951;DHT22;25629;51.444;-2.606;2023-06-14T12:03:24;30.10;99.90
39951;DHT22;25629;51.444;-2.606;2023-06-14T12:06:02;30.20;99.90
39951;DHT22;25629;51.444;-2.606;2023-06-14T12:08:34;30.50;99.90
39951;DHT22;25629;51.444;-2.606;2023-06-14T12:11:07;30.80;99.90
39951;DHT22;25629;51.444;-2.606;2023-06-14T12:13:37;30.50;99.90
39951;DHT22;25629;51.444;-2.606;2023-06-14T12:16:03;30.60;99.90
39951;DHT22;25629;51.444;-2.606;2023-06-14T12:18:32;30.60;99.90
39951;DHT22;25629;51.444;-2.606;2023-06-14T12:20:59;30.40;99.90
39951;DHT22;25629;51.444;-2.606;2023-06-14T12:23:44;30.70;99.90
39951;DHT22;25629;51.444;-2.606;2023-06-14T12:26:13;31.10;99.90
39951;DHT22;25629;51.444;-2.606;2023-06-14T12:28:39;31.50;99.90
39951;DHT22;25629;51.444;-2.606;2023-06-14T12:31:05;31.20;99.90
39951;DHT22;25629;51.444;-2.606;2023-06-14T12:33:31;31.10;99.90
39951;DHT22;25629;51.444;-2.606;2023-06-14T12:35:57;31.20;99.90
39951;DHT22;25629;51.444;-2.606;2023-06-14T12:38:23;31.40;99.90
39951;DHT22;25629;51.444;-2.606;2023-06-14T12:40:49;31.20;99.90
39951;DHT22;25629;51.444;-2.606;2023-06-14T12:43:15;31.40;99.90
39951;DHT22;25629;51.444;-2.606;2023-06-14T12:45:40;31.50;99.90
39951;DHT22;25629;51.444;-2.606;2023-06-14T12:48:06;31.90;99.90
39951;DHT22;25629;51.444;-2.606;2023-06-14T12:50:33;32.60;99.90
39951;DHT22;25629;51.444;-2.606;2023-06-14T12:52:59;33.00;99.90
39951;DHT22;25629;51.444;-2.606;2023-06-14T12:55:25;32.80;99.90
39951;DHT22;25629;51.444;-2.606;2023-06-14T12:57:51;32.70;99.90
39951;DHT22;25629;51.444;-2.606;2023-06-14T13:00:17;33.20;99.90
39951;DHT22;25629;51.444;-2.606;2023-06-14T13:02:43;32.70;99.90
39951;DHT22;25629;51.444;-2.606;2023-06-14T13:05:09;32.60;99.90
39951;DHT22;25629;51.444;-2.606;2023-06-14T13:07:34;33.20;99.90
39951;DHT22;25629;51.444;-2.606;2023-06-14T13:10:00;33.90;99.90
39951;DHT22;25629;51.444;-2.606;2023-06-14T13:12:26;33.90;99.90
39951;DHT22;25629;51.444;-2.606;2023-06-14T13:14:51;34.40;99.90
39951;DHT22;25629;51.444;-2.606;2023-06-14T13:17:17;34.70;99.90
39951;DHT22;25629;51.444;-2.606;2023-06-14T13:19:43;34.90;99.90
39951;DHT22;25629;51.444;-2.606;2023-06-14T13:22:08;34.70;99.90
39951;DHT22;25629;51.444;-2.606;2023-06-14T13:24:34;34.90;99.90
39951;DHT22;25629;51.444;-2.606;2023-06-14T13:27:00;34.80;99.90
39951;DHT22;25629;51.444;-2.606;2023-06-14T13:29:25;35.10;99.90
39951;DHT22;25629;51.444;-2.606;2023-06-14T13:31:52;34.90;99.90
39951;DHT22;25629;51.444;-2.606;2023-06-14T13:34:18;34.90;99.90
39951;DHT22;25629;51.444;-2.606;2023-06-14T13:36:43;35.10;99.90
39951;DHT22;25629;51.444;-2.606;2023-06-14T13:39:09;34.80;99.90
39951;DHT22;25629;51.444;-2.606;2023-06-14T13:41:36;34.90;99.90
39951;DHT22;25629;51.444;-2.606;2023-06-14T13:44:01;35.10;99.90
39951;DHT22;25629;51.444;-2.606;2023-06-14T13:46:29;35.20;99.90
39951;DHT22;25629;51.444;-2.606;2023-06-14T13:48:55;34.80;99.90
39951;DHT22;25629;51.444;-2.606;2023-06-14T13:51:20;35.50;99.90
39951;DHT22;25629;51.444;-2.606;2023-06-14T13:53:47;36.00;99.90
39951;DHT22;25629;51.444;-2.606;2023-06-14T13:56:13;35.60;99.90
39951;DHT22;25629;51.444;-2.606;2023-06-14T13:58:38;35.60;99.90
39951;DHT22;25629;51.444;-2.606;2023-06-14T14:01:04;35.30;99.90
39951;DHT22;25629;51.444;-2.606;2023-06-14T14:03:30;35.50;99.90
39951;DHT22;25629;51.444;-2.606;2023-06-14T14:05:56;35.40;99.90
39951;DHT22;25629;51.444;-2.606;2023-06-14T14:08:21;35.20;99.90
39951;DHT22;25629;51.444;-2.606;2023-06-14T14:10:47;35.60;99.90
39951;DHT22;25629;51.444;-2.606;2023-06-14T14:13:13;35.70;99.90
39951;DHT22;25629;51.444;-2.606;2023-06-14T14:15:38;35.80;99.90
39951;DHT22;25629;51.444;-2.606;2023-06-14T14:18:04;35.50;99.90
39951;DHT22;25629;51.444;-2.606;2023-06-14T14:20:30;35.90;99.90
39951;DHT22;25629;51.444;-2.606;2023-06-14T14:22:56;36.10;99.90
39951;DHT22;25629;51.444;-2.606;2023-06-14T14:25:21;36.60;99.90
39951;DHT22;25629;51.444;-2.606;2023-06-14T14:27:47;36.50;99.90
39951;DHT22;25629;51.444;-2.606;2023-06-14T14:30:13;36.60;99.90
39951;DHT22;25629;51.444;-2.606;2023-06-14T14:32:39;36.90;99.90
39951;DHT22;25629;51.444;-2.606;2023-06-14T14:35:06;36.60;99.90
39951;DHT22;25629;51.444;-2.606;2023-06-14T14:37:31;36.50;99.90
39951;DHT22;25629;51.444;-2.606;2023-06-14T14:39:57;36.50;99.90
39951;DHT22;25629;51.444;-2.606;2023-06-14T14:42:22;36.60;99.90
39951;DHT22;25629;51.444;-2.606;2023-06-14T14:44:48;37.10;99.90
39951;DHT22;25629;51.444;-2.606;2023-06-14T14:47:14;37.50;99.90
39951;DHT22;25629;51.444;-2.606;2023-06-14T14:49:39;37.60;99.90
39951;DHT22;25629;51.444;-2.606;2023-06-14T14:52:05;37.60;99.90
39951;DHT22;25629;51.444;-2.606;2023-06-14T14:54:31;37.80;99.90
39951;DHT22;25629;51.444;-2.606;2023-06-14T14:56:56;37.40;99.90
39951;DHT22;25629;51.444;-2.606;2023-06-14T14:59:22;37.50;99.90
39951;DHT22;25629;51.444;-2.606;2023-06-14T15:01:47;37.50;99.90
39951;DHT22;25629;51.444;-2.606;2023-06-14T15:04:13;37.60;99.90
39951;DHT22;25629;51.444;-2.606;2023-06-14T15:06:39;37.70;99.90
39951;DHT22;25629;51.444;-2.606;2023-06-14T15:09:07;37.60;99.90
39951;DHT22;25629;51.444;-2.606;2023-06-14T15:11:33;37.80;99.90
39951;DHT22;25629;51.444;-2.606;2023-06-14T15:13:58;38.50;99.90
39951;DHT22;25629;51.444;-2.606;2023-06-14T15:16:24;38.80;99.90
39951;DHT22;25629;51.444;-2.606;2023-06-14T15:18:50;37.80;99.90
39951;DHT22;25629;51.444;-2.606;2023-06-14T15:21:15;37.60;99.90
39951;DHT22;25629;51.444;-2.606;2023-06-14T15:23:41;37.10;99.90
39951;DHT22;25629;51.444;-2.606;2023-06-14T15:26:07;37.30;99.90
39951;DHT22;25629;51.444;-2.606;2023-06-14T15:28:32;37.20;99.90
39951;DHT22;25629;51.444;-2.606;2023-06-14T15:30:58;36.80;99.90
39951;DHT22;25629;51.444;-2.606;2023-06-14T15:33:24;37.00;99.90